createdAt,value
2023-08-03T00:01:40.178Z,100.00
2023-08-03T00:04:09.743Z,100.00
2023-08-03T00:06:39.371Z,100.00
2023-08-03T00:09:10.364Z,100.00
2023-08-03T00:11:40.104Z,100.00
2023-08-03T00:14:09.701Z,100.00
2023-08-03T00:16:39.267Z,100.00
2023-08-03T00:19:08.819Z,100.00
2023-08-03T00:21:38.337Z,100.00
2023-08-03T00:24:09.190Z,100.00
2023-08-03T00:26:38.647Z,100.00
2023-08-03T00:29:08.203Z,100.00
2023-08-03T00:31:37.735Z,100.00
2023-08-03T00:34:07.287Z,100.00
2023-08-03T00:36:36.763Z,100.00
2023-08-03T00:39:06.857Z,100.00
2023-08-03T00:41:37.878Z,100.00
2023-08-03T00:44:07.408Z,100.00
2023-08-03T00:46:36.951Z,100.00
2023-08-03T00:49:06.644Z,100.00
2023-08-03T00:51:37.693Z,100.00
2023-08-03T00:54:08.573Z,100.00
2023-08-03T00:56:39.786Z,100.00
2023-08-03T00:59:11.538Z,100.00
2023-08-03T01:01:43.185Z,100.00
2023-08-03T01:04:13.204Z,100.00
2023-08-03T01:06:42.895Z,100.00
2023-08-03T01:09:12.584Z,100.00
2023-08-03T01:11:45.710Z,100.00
2023-08-03T01:14:15.712Z,100.00
2023-08-03T01:16:45.317Z,100.00
2023-08-03T01:19:15.850Z,100.00
2023-08-03T01:21:48.296Z,100.00
2023-08-03T01:24:19.171Z,100.00
2023-08-03T01:26:49.916Z,100.00
2023-08-03T01:29:19.446Z,100.00
2023-08-03T01:31:51.513Z,100.00
2023-08-03T01:34:21.035Z,100.00
2023-08-03T01:36:50.645Z,100.00
2023-08-03T01:39:22.900Z,100.00
2023-08-03T01:41:52.525Z,100.00
2023-08-03T01:44:28.336Z,100.00
2023-08-03T01:47:00.834Z,100.00
2023-08-03T01:49:33.711Z,100.00
2023-08-03T01:52:03.288Z,100.00
2023-08-03T01:54:34.166Z,100.00
2023-08-03T01:57:03.722Z,100.00
2023-08-03T01:59:33.316Z,100.00
2023-08-03T02:02:03.035Z,100.00
2023-08-03T02:04:32.663Z,100.00
2023-08-03T02:07:10.810Z,100.00
2023-08-03T02:09:41.636Z,100.00
2023-08-03T02:12:11.658Z,100.00
2023-08-03T02:14:41.141Z,100.00
2023-08-03T02:17:10.821Z,100.00
2023-08-03T02:19:40.554Z,100.00
2023-08-03T02:22:10.191Z,100.00
2023-08-03T02:24:41.143Z,100.00
2023-08-03T02:27:10.683Z,100.00
2023-08-03T02:29:40.206Z,100.00
2023-08-03T02:32:10.290Z,100.00
2023-08-03T02:34:41.267Z,100.00
2023-08-03T02:37:11.159Z,100.00
2023-08-03T02:39:42.609Z,100.00
2023-08-03T02:42:12.640Z,100.00
2023-08-03T02:44:46.359Z,100.00
2023-08-03T02:47:17.208Z,100.00
2023-08-03T02:49:46.876Z,100.00
2023-08-03T02:52:16.466Z,100.00
2023-08-03T02:54:51.809Z,100.00
2023-08-03T02:57:23.827Z,100.00
2023-08-03T02:59:55.371Z,100.00
2023-08-03T03:02:25.989Z,100.00
2023-08-03T03:04:56.612Z,100.00
2023-08-03T03:07:28.336Z,100.00
2023-08-03T03:10:01.822Z,100.00
2023-08-03T03:12:33.045Z,100.00
2023-08-03T03:15:02.800Z,100.00
2023-08-03T03:17:32.322Z,100.00
2023-08-03T03:20:04.670Z,100.00
2023-08-03T03:22:34.321Z,100.00
2023-08-03T03:25:06.736Z,100.00
2023-08-03T03:27:36.263Z,100.00
2023-08-03T03:30:08.096Z,100.00
2023-08-03T03:32:37.763Z,100.00
2023-08-03T03:35:09.231Z,100.00
2023-08-03T03:37:39.354Z,100.00
2023-08-03T03:40:12.755Z,100.00
2023-08-03T03:42:46.337Z,100.00
2023-08-03T03:45:16.091Z,100.00
2023-08-03T03:47:45.959Z,100.00
2023-08-03T03:50:15.813Z,100.00
2023-08-03T03:52:45.639Z,100.00
2023-08-03T03:55:20.902Z,100.00
2023-08-03T03:57:56.280Z,100.00
2023-08-03T04:00:25.870Z,100.00
2023-08-03T04:02:56.196Z,100.00
2023-08-03T04:05:27.765Z,100.00
2023-08-03T04:07:57.324Z,100.00
2023-08-03T04:10:28.240Z,100.00
2023-08-03T04:12:58.293Z,100.00
2023-08-03T04:15:28.329Z,100.00
2023-08-03T04:17:57.885Z,100.00
2023-08-03T04:20:32.575Z,100.00
2023-08-03T04:23:02.092Z,100.00
2023-08-03T04:25:34.305Z,100.00
2023-08-03T04:28:08.079Z,100.00
2023-08-03T04:30:40.647Z,100.00
2023-08-03T04:33:10.993Z,100.00
2023-08-03T04:35:42.192Z,100.00
2023-08-03T04:38:18.747Z,100.00
2023-08-03T04:40:55.635Z,100.00
2023-08-03T04:43:29.379Z,100.00
2023-08-03T04:45:58.997Z,100.00
2023-08-03T04:48:29.700Z,100.00
2023-08-03T04:51:00.300Z,100.00
2023-08-03T04:53:31.165Z,100.00
2023-08-03T04:56:02.479Z,100.00
2023-08-03T04:58:32.574Z,100.00
2023-08-03T05:01:02.780Z,100.00
2023-08-03T05:03:33.534Z,100.00
2023-08-03T05:06:04.950Z,100.00
2023-08-03T05:08:35.676Z,100.00
2023-08-03T05:11:06.576Z,100.00
2023-08-03T05:13:41.414Z,100.00
2023-08-03T05:16:11.786Z,100.00
2023-08-03T05:18:41.592Z,100.00
2023-08-03T05:21:11.932Z,100.00
2023-08-03T05:23:41.969Z,100.00
2023-08-03T05:26:12.902Z,100.00
2023-08-03T05:28:42.540Z,100.00
2023-08-03T05:31:12.094Z,100.00
2023-08-03T05:33:41.697Z,100.00
2023-08-03T05:36:11.802Z,100.00
2023-08-03T05:38:41.379Z,100.00
2023-08-03T05:41:18.321Z,100.00
2023-08-03T05:43:48.610Z,100.00
2023-08-03T05:46:20.317Z,100.00
2023-08-03T05:48:53.327Z,100.00
2023-08-03T05:51:29.343Z,100.00
2023-08-03T05:53:59.880Z,100.00
2023-08-03T05:56:30.741Z,100.00
2023-08-03T05:59:00.373Z,100.00
2023-08-03T06:01:29.948Z,100.00
2023-08-03T06:03:59.477Z,100.00
2023-08-03T06:06:30.254Z,100.00
2023-08-03T06:09:01.652Z,100.00
2023-08-03T06:11:33.949Z,100.00
2023-08-03T06:14:03.672Z,100.00
2023-08-03T06:16:33.321Z,100.00
2023-08-03T06:19:02.983Z,100.00
2023-08-03T06:21:32.489Z,100.00
2023-08-03T06:24:02.592Z,100.00
2023-08-03T06:26:37.866Z,100.00
2023-08-03T06:29:07.858Z,100.00
2023-08-03T06:31:40.981Z,100.00
2023-08-03T06:34:13.809Z,100.00
2023-08-03T06:36:45.299Z,100.00
2023-08-03T06:39:15.082Z,100.00
2023-08-03T06:41:46.153Z,100.00
2023-08-03T06:44:19.375Z,100.00
2023-08-03T06:46:48.908Z,100.00
2023-08-03T06:49:18.427Z,100.00
2023-08-03T06:51:48.104Z,100.00
2023-08-03T06:54:17.804Z,100.00
2023-08-03T06:56:48.685Z,100.00
2023-08-03T06:59:22.207Z,100.00
2023-08-03T07:01:55.993Z,100.00
2023-08-03T07:04:25.476Z,100.00
2023-08-03T07:06:54.942Z,100.00
2023-08-03T07:09:25.617Z,100.00
2023-08-03T07:11:56.554Z,100.00
2023-08-03T07:14:26.066Z,100.00
2023-08-03T07:16:55.522Z,100.00
2023-08-03T07:19:25.050Z,100.00
2023-08-03T07:21:56.792Z,100.00
2023-08-03T07:24:29.232Z,99.34
2023-08-03T07:27:01.456Z,97.85
2023-08-03T07:29:31.461Z,98.04
2023-08-03T07:32:00.977Z,100.00
2023-08-03T07:34:30.754Z,100.00
2023-08-03T07:37:01.742Z,92.22
2023-08-03T07:39:47.734Z,94.27
2023-08-03T07:42:35.931Z,86.84
2023-08-03T07:45:08.233Z,91.87
2023-08-03T07:47:37.950Z,91.45
2023-08-03T07:50:09.508Z,92.53
2023-08-03T07:52:40.367Z,92.37
2023-08-03T07:55:10.857Z,95.87
2023-08-03T07:57:42.138Z,90.00
2023-08-03T08:00:14.166Z,88.78
2023-08-03T08:02:43.808Z,84.19
2023-08-03T08:05:13.657Z,93.85
2023-08-03T08:07:43.607Z,87.32
2023-08-03T08:10:13.411Z,92.84
2023-08-03T08:12:44.770Z,95.70
2023-08-03T08:15:15.224Z,89.94
2023-08-03T08:17:44.710Z,86.37
2023-08-03T08:20:14.727Z,83.97
2023-08-03T08:22:44.237Z,85.46
2023-08-03T08:25:14.159Z,87.55
2023-08-03T08:27:45.192Z,85.30
2023-08-03T08:30:14.833Z,88.97
2023-08-03T08:32:44.293Z,94.57
2023-08-03T08:35:13.942Z,86.09
2023-08-03T08:37:43.509Z,81.34
2023-08-03T08:40:13.970Z,86.08
2023-08-03T08:42:44.878Z,80.81
2023-08-03T08:45:14.396Z,83.52
2023-08-03T08:47:44.075Z,85.53
2023-08-03T08:56:05.503Z,78.34
2023-08-03T09:00:49.113Z,74.44
2023-08-03T09:03:19.320Z,73.27
2023-08-03T09:08:52.864Z,73.69
2023-08-03T09:11:40.132Z,71.17
2023-08-03T09:14:15.503Z,70.08
2023-08-03T09:16:45.221Z,69.65
2023-08-03T09:19:14.743Z,68.52
2023-08-03T09:27:05.177Z,69.51
2023-08-03T09:29:36.039Z,68.45
2023-08-03T09:32:27.319Z,68.75
2023-08-03T09:34:57.370Z,73.36
2023-08-03T09:40:10.716Z,68.68
2023-08-03T09:42:42.307Z,69.44
2023-08-03T09:47:47.213Z,64.57
2023-08-03T09:50:17.102Z,66.08
2023-08-03T09:52:50.327Z,67.37
2023-08-03T09:55:30.518Z,63.59
2023-08-03T09:58:05.573Z,65.11
2023-08-03T10:00:37.086Z,65.11
2023-08-03T10:03:11.651Z,63.28
2023-08-03T10:05:50.062Z,66.36
2023-08-03T10:08:33.406Z,67.93
2023-08-03T10:11:05.143Z,63.07
2023-08-03T10:13:37.670Z,64.50
2023-08-03T10:16:09.583Z,60.94
2023-08-03T10:21:13.801Z,64.68
2023-08-03T10:24:19.075Z,59.87
2023-08-03T10:26:55.520Z,61.05
2023-08-03T10:29:59.468Z,61.79
2023-08-03T10:32:32.517Z,62.95
2023-08-03T10:35:40.946Z,60.69
2023-08-03T10:38:21.025Z,58.21
2023-08-03T10:40:50.503Z,58.02
2023-08-03T10:43:20.042Z,59.25
2023-08-03T10:45:49.586Z,58.69
2023-08-03T10:48:36.030Z,55.58
2023-08-03T10:51:05.913Z,57.96
2023-08-03T10:53:36.069Z,56.65
2023-08-03T10:56:12.103Z,56.83
2023-08-03T10:58:48.829Z,56.16
2023-08-03T11:01:24.864Z,58.26
2023-08-03T11:03:56.710Z,60.56
2023-08-03T11:06:27.591Z,57.68
2023-08-03T11:09:00.277Z,57.85
2023-08-03T11:11:33.845Z,56.78
2023-08-03T11:14:05.598Z,55.51
2023-08-03T11:16:37.030Z,56.55
2023-08-03T11:19:07.986Z,57.04
2023-08-03T11:21:37.495Z,58.49
2023-08-03T11:24:07.361Z,57.23
2023-08-03T11:26:36.898Z,56.82
2023-08-03T11:29:08.277Z,57.22
2023-08-03T11:31:44.106Z,56.84
2023-08-03T11:34:16.502Z,55.39
2023-08-03T11:36:49.936Z,57.06
2023-08-03T11:39:20.730Z,53.36
2023-08-03T11:41:51.328Z,56.92
2023-08-03T11:44:23.792Z,57.15
2023-08-03T11:47:08.778Z,56.45
2023-08-03T11:49:39.773Z,55.45
2023-08-03T11:52:09.815Z,54.42
2023-08-03T11:54:41.169Z,52.84
2023-08-03T11:57:28.645Z,51.64
2023-08-03T11:59:58.534Z,52.69
2023-08-03T12:02:41.803Z,53.09
2023-08-03T12:05:18.068Z,52.54
2023-08-03T12:10:28.753Z,51.40
2023-08-03T12:13:02.439Z,52.96
2023-08-03T12:15:32.638Z,51.47
2023-08-03T12:18:02.128Z,50.30
2023-08-03T12:20:36.523Z,52.05
2023-08-03T12:23:06.290Z,52.97
2023-08-03T12:25:37.030Z,50.93
2023-08-03T12:28:10.662Z,49.43
2023-08-03T12:30:41.781Z,49.06
2023-08-03T12:33:12.736Z,48.45
2023-08-03T12:35:46.723Z,53.74
2023-08-03T12:38:33.574Z,51.73
2023-08-03T12:41:09.840Z,49.05
2023-08-03T12:43:39.341Z,47.84
2023-08-03T12:46:14.386Z,50.44
2023-08-03T12:48:44.216Z,50.44
2023-08-03T12:51:15.364Z,49.77
2023-08-03T12:53:45.775Z,51.13
2023-08-03T12:56:15.472Z,48.76
2023-08-03T12:58:45.703Z,51.10
2023-08-03T13:01:15.542Z,48.61
2023-08-03T13:03:45.079Z,48.81
2023-08-03T13:06:15.911Z,49.17
2023-08-03T13:08:45.472Z,47.44
2023-08-03T13:11:15.367Z,46.92
2023-08-03T13:13:44.881Z,48.97
2023-08-03T13:16:14.731Z,48.42
2023-08-03T13:18:44.393Z,48.74
2023-08-03T13:21:17.191Z,50.22
2023-08-03T13:23:47.970Z,49.07
2023-08-03T13:26:17.745Z,46.27
2023-08-03T13:28:51.565Z,47.93
2023-08-03T13:31:22.112Z,48.42
2023-08-03T13:33:52.550Z,48.68
2023-08-03T13:36:23.542Z,47.84
2023-08-03T13:38:53.203Z,49.14
2023-08-03T13:41:23.657Z,48.31
2023-08-03T13:43:53.233Z,44.18
2023-08-03T13:46:22.936Z,45.87
2023-08-03T13:48:52.468Z,46.15
2023-08-03T13:51:24.835Z,44.89
2023-08-03T13:53:56.401Z,44.40
2023-08-03T13:58:58.558Z,43.72
2023-08-03T14:04:00.632Z,45.75
2023-08-03T14:06:32.191Z,45.97
2023-08-03T14:11:58.761Z,43.62
2023-08-03T14:16:57.444Z,45.01
2023-08-03T14:19:27.478Z,44.08
2023-08-03T14:21:59.019Z,43.11
2023-08-03T14:24:29.366Z,44.56
2023-08-03T14:26:58.833Z,42.80
2023-08-03T14:29:28.317Z,43.45
2023-08-03T14:31:57.809Z,45.45
2023-08-03T14:35:35.726Z,44.08
2023-08-03T14:37:18.076Z,43.37
2023-08-03T14:39:48.121Z,42.69
2023-08-03T14:42:17.746Z,42.50
2023-08-03T14:44:51.135Z,41.12
2023-08-03T14:47:21.270Z,43.43
2023-08-03T14:52:25.297Z,44.65
2023-08-03T14:54:55.437Z,45.05
2023-08-03T14:57:25.140Z,45.10
2023-08-03T14:59:55.119Z,42.20
2023-08-03T15:02:26.005Z,41.68
2023-08-03T15:04:56.654Z,43.68
2023-08-03T15:07:27.848Z,43.41
2023-08-03T15:09:59.066Z,43.97
2023-08-03T15:12:28.621Z,42.67
2023-08-03T15:15:09.660Z,43.59
2023-08-03T15:17:40.301Z,43.05
2023-08-03T15:20:12.416Z,42.99
2023-08-03T15:22:44.185Z,43.07
2023-08-03T15:25:14.491Z,42.81
2023-08-03T15:27:58.325Z,42.93
2023-08-03T15:30:58.824Z,43.06
2023-08-03T15:33:21.483Z,42.58
2023-08-03T15:35:52.492Z,45.09
2023-08-03T15:38:24.413Z,45.16
2023-08-03T15:41:02.754Z,45.07
2023-08-03T15:43:40.546Z,45.90
2023-08-03T15:46:19.710Z,46.29
2023-08-03T15:51:24.552Z,47.14
2023-08-03T15:54:05.555Z,47.14
2023-08-03T15:56:39.429Z,47.64
2023-08-03T15:59:09.504Z,48.59
2023-08-03T16:01:39.040Z,49.33
2023-08-03T16:04:08.684Z,46.88
2023-08-03T16:06:38.153Z,46.83
2023-08-03T16:09:09.156Z,45.74
2023-08-03T16:11:53.286Z,46.39
2023-08-03T16:14:24.491Z,49.71
2023-08-03T16:16:54.042Z,47.54
2023-08-03T16:19:24.160Z,47.76
2023-08-03T16:21:53.922Z,46.69
2023-08-03T16:24:24.837Z,48.61
2023-08-03T16:26:55.092Z,48.88
2023-08-03T16:29:25.773Z,48.98
2023-08-03T16:31:55.540Z,48.96
2023-08-03T16:34:28.025Z,49.03
2023-08-03T16:36:59.063Z,49.58
2023-08-03T16:39:30.010Z,50.37
2023-08-03T16:41:59.574Z,48.27
2023-08-03T16:44:29.068Z,50.92
2023-08-03T16:46:58.532Z,50.54
2023-08-03T16:49:28.346Z,48.94
2023-08-03T16:51:57.927Z,49.73
2023-08-03T16:54:28.864Z,48.73
2023-08-03T16:56:58.351Z,49.26
2023-08-03T16:59:27.848Z,49.98
2023-08-03T17:01:57.400Z,48.60
2023-08-03T17:04:26.923Z,48.63
2023-08-03T17:06:56.722Z,48.31
2023-08-03T17:09:26.257Z,49.20
2023-08-03T17:11:57.490Z,49.39
2023-08-03T17:14:27.512Z,49.74
2023-08-03T17:16:58.006Z,50.67
2023-08-03T17:19:27.675Z,50.47
2023-08-03T17:21:57.430Z,50.63
2023-08-03T17:24:27.209Z,50.07
2023-08-03T17:26:58.244Z,51.27
2023-08-03T17:29:27.732Z,50.82
2023-08-03T17:32:00.216Z,51.48
2023-08-03T17:34:29.689Z,51.71
2023-08-03T17:37:13.122Z,52.71
2023-08-03T17:39:42.687Z,53.35
2023-08-03T17:42:13.616Z,54.57
2023-08-03T17:44:43.125Z,54.29
2023-08-03T17:47:12.664Z,54.43
2023-08-03T17:49:42.224Z,54.59
2023-08-03T17:52:11.815Z,54.21
2023-08-03T17:54:41.418Z,54.50
2023-08-03T17:57:11.478Z,55.77
2023-08-03T17:59:42.314Z,55.04
2023-08-03T18:02:36.171Z,55.42
2023-08-03T18:05:06.997Z,56.48
2023-08-03T18:07:36.483Z,55.90
2023-08-03T18:10:07.092Z,57.28
2023-08-03T18:12:45.817Z,57.39
2023-08-03T18:15:17.016Z,56.95
2023-08-03T18:17:46.618Z,58.59
2023-08-03T18:20:16.679Z,57.83
2023-08-03T18:22:46.182Z,57.89
2023-08-03T18:25:15.845Z,57.98
2023-08-03T18:27:45.396Z,56.87
2023-08-03T18:30:16.313Z,57.93
2023-08-03T18:32:46.660Z,59.46
2023-08-03T18:37:45.212Z,59.54
2023-08-03T18:40:14.843Z,60.16
2023-08-03T18:42:44.383Z,58.00
2023-08-03T18:45:14.176Z,60.14
2023-08-03T18:47:45.184Z,60.54
2023-08-03T18:50:14.890Z,60.09
2023-08-03T18:55:15.398Z,62.37
2023-08-03T18:57:44.919Z,62.70
2023-08-03T19:00:16.283Z,62.93
2023-08-03T19:02:47.316Z,63.21
2023-08-03T19:05:17.127Z,63.69
2023-08-03T19:07:47.624Z,65.75
2023-08-03T19:10:17.242Z,67.93
2023-08-03T19:12:46.819Z,69.46
2023-08-03T19:15:16.674Z,76.25
2023-08-03T19:17:47.574Z,77.46
2023-08-03T19:20:17.217Z,77.53
2023-08-03T19:22:46.696Z,81.94
2023-08-03T19:25:16.455Z,83.87
2023-08-03T19:27:46.103Z,85.34
2023-08-03T19:30:15.656Z,85.76
2023-08-03T19:32:48.194Z,86.60
2023-08-03T19:35:18.501Z,87.89
2023-08-03T19:37:48.355Z,88.75
2023-08-03T19:40:18.045Z,91.88
2023-08-03T19:42:47.613Z,92.08
2023-08-03T19:45:21.364Z,93.83
2023-08-03T19:47:54.324Z,95.62
2023-08-03T19:50:27.485Z,96.01
2023-08-03T19:55:31.089Z,100.00
2023-08-03T20:08:15.893Z,100.00
2023-08-03T20:10:46.496Z,100.00
2023-08-03T20:13:15.966Z,100.00
2023-08-03T20:18:22.138Z,100.00
2023-08-03T20:20:52.001Z,100.00
2023-08-03T20:23:21.542Z,100.00
2023-08-03T20:25:51.000Z,100.00
2023-08-03T20:30:53.152Z,100.00
2023-08-03T20:33:24.790Z,100.00
2023-08-03T20:43:35.810Z,100.00
2023-08-03T20:46:09.868Z,100.00
2023-08-03T20:48:40.946Z,100.00
2023-08-03T20:51:10.765Z,100.00
2023-08-03T20:53:41.488Z,100.00
2023-08-03T20:56:11.277Z,100.00
2023-08-03T20:58:40.914Z,100.00
2023-08-03T21:01:10.554Z,100.00
2023-08-03T21:03:43.203Z,100.00
2023-08-03T21:06:13.796Z,100.00
2023-08-03T21:08:43.408Z,100.00
2023-08-03T21:11:14.846Z,100.00
2023-08-03T21:13:45.499Z,100.00
2023-08-03T21:16:16.512Z,100.00
2023-08-03T21:21:22.843Z,100.00
2023-08-03T21:23:52.460Z,100.00
2023-08-03T21:26:22.128Z,100.00
2023-08-03T21:28:51.910Z,100.00
2023-08-03T21:31:21.722Z,100.00
2023-08-03T21:33:52.840Z,100.00
2023-08-03T21:36:22.534Z,100.00
2023-08-03T21:38:52.526Z,100.00
2023-08-03T21:41:22.115Z,100.00
2023-08-03T21:43:51.757Z,100.00
2023-08-03T21:46:21.774Z,100.00
2023-08-03T21:48:54.314Z,100.00
2023-08-03T21:51:23.997Z,100.00
2023-08-03T21:53:53.697Z,100.00
2023-08-03T21:56:23.386Z,100.00
2023-08-03T21:58:53.118Z,100.00
2023-08-03T22:01:22.831Z,100.00
2023-08-03T22:03:53.860Z,100.00
2023-08-03T22:06:23.886Z,100.00
2023-08-03T22:08:53.507Z,100.00
2023-08-03T22:11:23.402Z,100.00
2023-08-03T22:13:53.041Z,100.00
2023-08-03T22:16:22.830Z,100.00
2023-08-03T22:18:53.892Z,100.00
2023-08-03T22:21:23.564Z,100.00
2023-08-03T22:23:53.212Z,100.00
2023-08-03T22:26:22.980Z,100.00
2023-08-03T22:28:52.668Z,100.00
2023-08-03T22:31:22.311Z,100.00
2023-08-03T22:33:53.341Z,100.00
2023-08-03T22:36:22.993Z,100.00
2023-08-03T22:38:52.655Z,100.00
2023-08-03T22:41:22.284Z,100.00
2023-08-03T22:43:51.868Z,100.00
2023-08-03T22:46:23.068Z,100.00
2023-08-03T22:48:55.626Z,100.00
2023-08-03T22:51:25.399Z,100.00
2023-08-03T22:53:55.044Z,100.00
2023-08-03T22:56:24.688Z,100.00
2023-08-03T22:58:54.322Z,100.00
2023-08-03T23:01:24.785Z,100.00
2023-08-03T23:03:55.974Z,100.00
2023-08-03T23:06:26.993Z,100.00
2023-08-03T23:08:57.463Z,100.00
2023-08-03T23:11:27.257Z,100.00
2023-08-03T23:13:59.946Z,100.00
2023-08-03T23:16:29.648Z,100.00
2023-08-03T23:19:00.626Z,100.00
2023-08-03T23:21:30.186Z,100.00
2023-08-03T23:23:59.841Z,100.00
2023-08-03T23:26:29.312Z,100.00
2023-08-03T23:28:58.883Z,100.00
2023-08-03T23:31:28.606Z,100.00
2023-08-03T23:33:59.560Z,100.00
2023-08-03T23:36:29.096Z,100.00
2023-08-03T23:38:58.635Z,100.00
2023-08-03T23:41:28.064Z,100.00
2023-08-03T23:43:57.592Z,100.00
2023-08-03T23:46:27.118Z,100.00
2023-08-03T23:48:56.609Z,100.00
2023-08-03T23:51:27.468Z,100.00
2023-08-03T23:53:56.927Z,100.00
2023-08-03T23:56:26.388Z,100.00
2023-08-03T23:58:55.815Z,100.00
